Time;durP1;ratioP1;P1;durP2;ratioP2;P2;SDS_P1;SDS_P2;PMS_P1;PMS_P2;Temp;Humidity;BMP_temperature;BMP_pressure;BME280_temperature;BME280_humidity;BME280_pressure;Samples;Min_cycle;Max_cycle;Signal;HPM_P1;HPM_P2
2023/03/25 00:00:16;;;;;;;13.85;8.57;;;;;;;8.48;60.29;94504.03;5095759;28;20107;-79
2023/03/25 00:02:46;;;;;;;12.93;8.80;;;;;;;8.47;60.48;94498.03;5095511;28;20535;-79
2023/03/25 00:05:13;;;;;;;13.20;7.90;;;;;;;8.65;59.92;94503.50;5094928;28;20134;-79
2023/03/25 00:07:40;;;;;;;12.90;8.13;;;;;;;8.80;59.77;94509.19;5111816;28;20042;-79
2023/03/25 00:10:06;;;;;;;11.55;8.52;;;;;;;8.72;59.29;94516.78;5078501;28;20054;-79
2023/03/25 00:12:32;;;;;;;13.00;8.70;;;;;;;8.58;59.49;94509.28;5112144;28;20039;-80
2023/03/25 00:14:57;;;;;;;13.60;9.32;;;;;;;8.51;59.65;94496.00;5093625;28;20428;-79
2023/03/25 00:17:25;;;;;;;12.77;8.95;;;;;;;8.61;59.65;94516.78;5077691;28;20080;-79
2023/03/25 00:19:50;;;;;;;15.18;10.30;;;;;;;8.40;59.90;94514.16;5111610;28;20059;-79
2023/03/25 00:22:19;;;;;;;12.60;9.40;;;;;;;8.52;59.76;94522.72;5095385;28;20346;-79
2023/03/25 00:24:45;;;;;;;14.52;10.23;;;;;;;8.24;60.33;94509.31;5111255;28;20048;-79
2023/03/25 00:27:10;;;;;;;15.02;9.80;;;;;;;8.24;59.88;94499.78;5113726;28;20344;-79
2023/03/25 00:29:36;;;;;;;12.95;9.43;;;;;;;8.27;59.85;94507.34;5109442;27;20024;-79
2023/03/25 00:32:01;;;;;;;15.68;9.45;;;;;;;8.18;59.96;94491.69;5091796;28;20036;-79
2023/03/25 00:34:27;;;;;;;15.73;10.18;;;;;;;7.94;60.31;94465.97;5106815;28;20036;-79
2023/03/25 00:36:52;;;;;;;16.58;10.23;;;;;;;8.05;60.94;94504.75;5111360;28;20035;-79
2023/03/25 00:39:18;;;;;;;16.52;9.88;;;;;;;8.16;60.43;94491.84;5144864;27;20024;-79
2023/03/25 00:41:43;;;;;;;14.93;9.80;;;;;;;8.17;60.51;94497.81;5112831;28;20081;-79
2023/03/25 00:44:11;;;;;;;14.20;9.90;;;;;;;8.09;60.59;94505.38;5093813;28;20458;-79
2023/03/25 00:46:36;;;;;;;19.70;10.00;;;;;;;8.02;61.17;94499.81;5078452;28;20031;-79
2023/03/25 00:49:02;;;;;;;15.00;9.93;;;;;;;8.03;60.73;94504.91;5108722;28;20078;-79
2023/03/25 00:51:30;;;;;;;16.20;10.07;;;;;;;7.98;61.14;94488.91;5068201;28;20065;-79
2023/03/25 00:53:59;;;;;;;15.43;9.85;;;;;;;7.88;61.07;94472.44;5109568;28;20024;-79
2023/03/25 00:56:24;;;;;;;14.63;10.13;;;;;;;7.67;61.14;94437.91;5111233;28;20031;-79
2023/03/25 00:58:50;;;;;;;14.57;9.85;;;;;;;7.99;60.86;94494.88;5110314;27;20035;-79
2023/03/25 01:01:22;;;;;;;17.83;10.00;;;;;;;7.94;60.94;94478.91;5087489;27;20070;-78
2023/03/25 01:03:56;;;;;;;14.30;10.10;;;;;;;7.38;61.46;94407.38;5107671;27;20044;-81
2023/03/25 01:06:27;;;;;;;15.10;10.15;;;;;;;7.80;61.57;94490.31;5102223;28;20059;-79
2023/03/25 01:08:56;;;;;;;14.27;9.70;;;;;;;7.69;61.95;94477.38;5089916;28;20401;-79
2023/03/25 01:11:27;;;;;;;14.40;9.63;;;;;;;7.87;61.61;94485.50;5090319;27;20478;-79
2023/03/25 01:13:55;;;;;;;12.18;8.80;;;;;;;7.70;61.55;94474.69;5106582;27;20058;-79
2023/03/25 01:16:21;;;;;;;17.25;10.60;;;;;;;7.67;62.14;94474.94;5106699;28;20031;-79
2023/03/25 01:18:46;;;;;;;16.95;10.50;;;;;;;7.61;61.94;94473.66;5105480;27;20204;-79
2023/03/25 01:21:12;;;;;;;14.25;10.10;;;;;;;7.63;62.34;94473.50;5105200;28;20539;-80
2023/03/25 01:23:37;;;;;;;14.45;9.85;;;;;;;6.98;62.21;94358.75;5106810;28;20032;-80
2023/03/25 01:26:03;;;;;;;14.30;10.13;;;;;;;7.62;62.10;94464.13;5106482;28;20489;-80
2023/03/25 01:28:29;;;;;;;13.95;9.68;;;;;;;7.04;61.98;94367.78;5104618;28;20524;-80
2023/03/25 01:31:01;;;;;;;16.65;10.50;;;;;;;7.32;62.24;94441.44;5106841;28;20027;-79
2023/03/25 01:33:27;;;;;;;13.93;9.25;;;;;;;7.63;61.82;94452.00;5113347;27;20048;-79
2023/03/25 01:35:52;;;;;;;16.00;9.68;;;;;;;7.17;62.01;94389.16;5106385;28;20038;-78
2023/03/25 01:38:18;;;;;;;14.07;9.38;;;;;;;7.08;62.00;94374.38;5071618;28;20085;-78
2023/03/25 01:40:47;;;;;;;14.55;9.90;;;;;;;7.49;62.56;94446.13;5107874;28;20362;-79
2023/03/25 01:43:14;;;;;;;16.58;10.23;;;;;;;7.49;62.17;94440.97;5103243;28;20024;-79
2023/03/25 01:45:39;;;;;;;14.93;9.73;;;;;;;7.40;62.15;94418.41;5107537;28;20027;-78
2023/03/25 01:48:09;;;;;;;15.00;9.82;;;;;;;7.40;62.89;94439.09;5088225;28;20050;-79
2023/03/25 01:50:36;;;;;;;13.73;9.23;;;;;;;7.43;62.36;94431.09;5104398;27;20471;-78
2023/03/25 01:53:02;;;;;;;15.98;9.93;;;;;;;7.28;62.82;94421.94;5089275;28;20038;-79
2023/03/25 01:55:28;;;;;;;11.98;8.65;;;;;;;6.94;63.26;94399.47;5089677;28;20111;-79
2023/03/25 01:57:55;;;;;;;13.85;9.23;;;;;;;7.20;62.82;94429.44;5105248;27;20067;-79
2023/03/25 02:00:21;;;;;;;14.63;9.68;;;;;;;7.29;62.80;94428.75;5107799;28;20096;-78
2023/03/25 02:02:47;;;;;;;13.88;9.43;;;;;;;7.08;63.16;94437.19;5106071;28;20538;-79
2023/03/25 02:05:19;;;;;;;15.05;9.57;;;;;;;6.80;63.70;94411.75;5107821;28;20043;-79
2023/03/25 02:07:46;;;;;;;13.05;8.95;;;;;;;6.74;63.00;94365.75;5088350;28;20126;-78
2023/03/25 02:10:12;;;;;;;17.58;9.85;;;;;;;7.12;63.18;94433.41;5106120;28;20019;-77
2023/03/25 02:12:39;;;;;;;16.20;10.05;;;;;;;7.01;63.19;94412.75;5105114;28;20038;-77
2023/03/25 02:15:06;;;;;;;14.27;9.40;;;;;;;6.83;63.33;94401.22;5089723;28;20024;-77
2023/03/25 02:17:50;;;;;;;14.75;9.30;;;;;;;7.00;63.74;94433.53;5088875;28;20028;-78
2023/03/25 02:20:24;;;;;;;15.35;9.13;;;;;;;7.04;63.78;94440.91;5103119;28;20038;-78
2023/03/25 02:22:55;;;;;;;13.85;9.02;;;;;;;7.04;63.53;94437.53;5106128;28;20156;-78
2023/03/25 02:25:34;;;;;;;;;;;;;;;7.06;63.40;94422.75;5106596;28;20536;-79
2023/03/25 02:28:11;;;;;;;13.07;8.48;;;;;;;6.97;63.74;94423.44;5104442;28;20420;-80
2023/03/25 02:30:49;;;;;;;14.52;9.23;;;;;;;6.85;63.91;94423.41;5104571;28;20047;-80
2023/03/25 02:33:33;;;;;;;14.27;10.05;;;;;;;6.80;64.22;94429.81;5105846;28;20039;-80
2023/03/25 02:36:23;;;;;;;15.38;9.50;;;;;;;6.90;63.81;94420.47;5107320;28;20023;-79
2023/03/25 02:38:52;;;;;;;13.90;9.50;;;;;;;6.79;64.24;94425.59;5104449;28;20562;-80
2023/03/25 02:41:22;;;;;;;16.13;9.60;;;;;;;6.60;63.90;94393.44;5104536;28;20449;-83
2023/03/25 02:43:57;;;;;;;13.93;9.60;;;;;;;6.87;64.17;94433.63;5071522;28;20483;-78
2023/03/25 02:46:23;;;;;;;12.38;8.57;;;;;;;6.79;64.14;94430.78;5105456;28;21393;-77
2023/03/25 02:49:06;;;;;;;12.32;8.80;;;;;;;6.86;63.96;94430.22;5103600;28;20114;-77
2023/03/25 02:51:38;;;;;;;14.98;9.57;;;;;;;6.83;64.47;94427.03;5102936;28;20024;-77
2023/03/25 02:54:07;;;;;;;13.50;8.93;;;;;;;6.64;64.02;94378.53;5104552;28;20173;-78
2023/03/25 02:56:33;;;;;;;14.50;9.38;;;;;;;6.77;63.67;94381.00;5088775;28;20040;-77
2023/03/25 02:58:58;;;;;;;13.70;9.48;;;;;;;6.49;63.97;94362.41;5087633;28;20101;-78
2023/03/25 03:01:25;;;;;;;14.25;9.68;;;;;;;6.72;64.31;94400.25;5088489;28;20034;-77
2023/03/25 03:03:54;;;;;;;13.52;9.38;;;;;;;6.75;63.84;94393.22;5088673;28;20122;-79
2023/03/25 03:06:19;;;;;;;16.02;9.73;;;;;;;5.92;64.74;94301.22;5070696;28;20051;-79
2023/03/25 03:08:49;;;;;;;13.60;9.20;;;;;;;6.66;64.36;94413.63;5087684;28;20035;-79
2023/03/25 03:11:27;;;;;;;13.98;9.55;;;;;;;6.64;64.43;94407.75;5105940;28;20030;-78
2023/03/25 03:13:56;;;;;;;13.98;9.65;;;;;;;6.57;64.74;94406.53;5088022;28;20585;-78
2023/03/25 03:16:40;;;;;;;11.77;8.55;;;;;;;6.54;64.88;94401.59;5107238;28;20024;-78
2023/03/25 03:19:36;;;;;;;12.32;8.65;;;;;;;6.34;65.51;94399.66;5104560;28;20031;-78
2023/03/25 03:22:13;;;;;;;12.77;8.48;;;;;;;6.41;65.50;94393.13;5101599;28;20035;-79
2023/03/25 03:24:45;;;;;;;12.48;8.60;;;;;;;6.43;65.22;94380.91;5109096;28;20036;-78
2023/03/25 03:27:34;;;;;;;14.52;9.35;;;;;;;6.54;65.20;94401.59;5093161;28;20028;-78
2023/03/25 03:30:25;;;;;;;15.45;8.77;;;;;;;6.49;65.58;94404.53;5104718;28;20031;-78
2023/03/25 03:32:59;;;;;;;14.57;8.65;;;;;;;6.64;64.80;94407.75;5078286;28;20032;-77
2023/03/25 03:35:48;;;;;;;15.75;8.82;;;;;;;6.23;65.11;94377.22;5103722;28;20031;-78
2023/03/25 03:38:15;;;;;;;13.98;8.40;;;;;;;6.27;65.39;94404.44;5092300;28;20467;-77
2023/03/25 03:40:42;;;;;;;11.60;8.00;;;;;;;6.22;66.08;94401.38;5092526;28;20085;-77
2023/03/25 03:43:25;;;;;;;15.15;8.38;;;;;;;6.19;66.91;94417.91;5095186;28;20036;-77
2023/03/25 03:45:52;;;;;;;10.05;8.07;;;;;;;6.21;66.29;94421.19;5096639;28;20039;-77
2023/03/25 03:48:43;;;;;;;14.27;8.32;;;;;;;5.96;66.77;94410.97;5095616;28;20519;-79
2023/03/25 03:51:17;;;;;;;14.45;8.80;;;;;;;5.85;66.98;94401.41;5111675;28;20026;-81
2023/03/25 03:54:07;;;;;;;10.75;8.00;;;;;;;5.94;66.87;94418.81;5090249;28;20044;-80
2023/03/25 03:56:37;;;;;;;12.63;8.32;;;;;;;5.94;66.26;94405.13;5104619;28;20039;-80
2023/03/25 03:59:19;;;;;;;13.02;8.13;;;;;;;5.80;67.18;94421.53;5075904;28;20035;-79
2023/03/25 04:01:46;;;;;;;12.35;8.48;;;;;;;5.18;66.96;94336.53;5108446;28;20034;-79
2023/03/25 04:04:25;;;;;;;9.20;6.82;;;;;;;5.67;66.97;94424.13;5090023;28;20040;-83
2023/03/25 04:07:00;;;;;;;14.85;8.35;;;;;;;5.38;67.80;94405.53;5105544;27;20164;-84
2023/03/25 04:09:53;;;;;;;13.63;8.02;;;;;;;5.15;68.46;94373.63;5109208;28;20063;-80
2023/03/25 04:12:36;;;;;;;13.95;8.25;;;;;;;5.22;68.26;94343.94;5073856;28;20096;-80
2023/03/25 04:15:02;;;;;;;12.68;7.80;;;;;;;5.86;67.95;94425.44;5092295;28;20137;-80
2023/03/25 04:17:31;;;;;;;11.63;8.23;;;;;;;5.36;67.58;94350.72;5090870;28;20111;-80
2023/03/25 04:19:58;;;;;;;12.45;8.40;;;;;;;5.30;67.85;94330.56;5091151;28;20031;-80
2023/03/25 04:22:23;;;;;;;13.45;7.70;;;;;;;5.14;67.99;94295.56;5089851;28;20405;-80
2023/03/25 04:24:50;;;;;;;9.88;7.35;;;;;;;5.98;67.86;94427.97;5108095;28;20035;-80
2023/03/25 04:27:16;;;;;;;12.25;7.47;;;;;;;5.22;68.31;94323.34;5107653;28;20058;-80
2023/03/25 04:29:46;;;;;;;11.27;7.75;;;;;;;5.57;67.38;94346.66;5107821;28;20515;-80
2023/03/25 04:32:12;;;;;;;15.10;8.32;;;;;;;5.52;67.41;94340.19;5106167;28;20481;-80
2023/03/25 04:34:37;;;;;;;12.43;8.77;;;;;;;5.86;67.28;94409.97;5109352;28;20047;-80
2023/03/25 04:37:03;;;;;;;12.38;8.57;;;;;;;5.88;67.64;94400.34;5090679;28;20067;-80
2023/03/25 04:39:31;;;;;;;13.20;8.10;;;;;;;6.13;67.24;94410.59;5109822;28;20031;-80
2023/03/25 04:41:56;;;;;;;10.40;7.88;;;;;;;5.69;67.13;94316.59;5089827;28;20031;-80
2023/03/25 04:44:24;;;;;;;10.98;8.27;;;;;;;5.58;67.10;94322.53;5107082;28;20027;-80
2023/03/25 04:46:50;;;;;;;11.93;8.07;;;;;;;5.76;67.44;94351.31;5109219;28;20050;-80
2023/03/25 04:49:20;;;;;;;12.55;7.63;;;;;;;5.67;66.75;94309.91;5090315;28;20421;-80
2023/03/25 04:51:50;;;;;;;13.73;8.00;;;;;;;6.22;66.31;94399.63;5088758;28;20080;-80
2023/03/25 04:54:19;;;;;;;12.35;7.85;;;;;;;6.31;66.05;94416.19;5089606;28;20088;-80
2023/03/25 04:56:46;;;;;;;11.65;7.65;;;;;;;6.61;65.54;94440.69;5108907;28;20103;-80
2023/03/25 04:59:12;;;;;;;10.65;7.13;;;;;;;5.99;66.03;94351.44;5073849;28;20111;-80
2023/03/25 05:01:40;;;;;;;9.35;6.85;;;;;;;6.27;66.07;94388.97;5108706;28;20118;-80
2023/03/25 05:04:07;;;;;;;13.65;7.68;;;;;;;5.99;66.06;94341.13;5089489;28;20146;-80
2023/03/25 05:06:33;;;;;;;9.20;6.90;;;;;;;6.68;65.17;94427.22;5107917;28;20055;-80
2023/03/25 05:09:03;;;;;;;15.55;7.60;;;;;;;6.38;65.13;94383.84;5089692;28;20532;-80
2023/03/25 05:11:29;;;;;;;11.32;7.13;;;;;;;6.12;64.96;94356.53;5109043;28;20493;-80
2023/03/25 05:13:55;;;;;;;9.38;7.05;;;;;;;6.67;65.12;94417.03;5106569;28;20417;-80
2023/03/25 05:16:20;;;;;;;11.00;7.80;;;;;;;6.17;65.58;94341.56;5076908;28;20355;-80
2023/03/25 05:18:46;;;;;;;12.60;7.80;;;;;;;6.24;65.23;94335.84;5107918;28;20059;-80
2023/03/25 05:21:12;;;;;;;11.95;7.55;;;;;;;7.01;64.65;94430.81;5106672;28;20382;-80
2023/03/25 05:23:37;;;;;;;9.77;6.85;;;;;;;6.61;64.31;94366.66;5106303;28;20076;-80
2023/03/25 05:26:03;;;;;;;10.55;7.32;;;;;;;7.08;64.39;94436.38;5089555;28;20528;-80
2023/03/25 05:28:29;;;;;;;13.85;7.68;;;;;;;6.62;64.19;94342.50;5090460;28;20453;-80
2023/03/25 05:30:54;;;;;;;12.40;8.18;;;;;;;7.08;63.45;94382.94;5109039;27;20059;-80
2023/03/25 05:33:20;;;;;;;12.23;7.30;;;;;;;7.06;63.33;94353.81;5071006;28;20039;-80
2023/03/25 05:35:46;;;;;;;9.27;6.95;;;;;;;7.97;62.06;94427.78;5108851;27;20035;-81
2023/03/25 05:38:17;;;;;;;9.43;6.70;;;;;;;7.75;61.42;94370.94;5090078;28;20421;-80
2023/03/25 05:40:46;;;;;;;15.73;7.65;;;;;;;8.34;61.32;94424.03;5090751;28;20040;-81
2023/03/25 05:43:15;;;;;;;13.27;7.60;;;;;;;7.64;60.14;94304.53;5105838;28;20104;-81
2023/03/25 05:45:41;;;;;;;11.00;7.75;;;;;;;8.24;59.37;94338.53;5089591;28;20036;-80
2023/03/25 05:48:07;;;;;;;16.95;8.90;;;;;;;9.27;59.00;94425.94;5072672;28;20031;-80
2023/03/25 05:50:33;;;;;;;17.70;9.20;;;;;;;9.98;57.34;94424.16;5106117;28;20042;-80
2023/03/25 05:52:58;;;;;;;22.77;11.27;;;;;;;10.86;55.69;94427.69;5088184;28;20451;-80
2023/03/25 05:55:24;;;;;;;30.17;13.23;;;;;;;10.93;53.56;94314.44;5107448;28;20054;-81
2023/03/25 05:57:50;;;;;;;29.73;13.75;;;;;;;11.98;51.94;94386.16;5106872;28;20035;-81
2023/03/25 06:00:20;;;;;;;19.48;9.52;;;;;;;11.80;51.88;94361.84;5108842;27;20030;-81
2023/03/25 06:02:47;;;;;;;12.27;8.05;;;;;;;11.89;51.85;94401.81;5071097;28;20493;-81
2023/03/25 06:05:13;;;;;;;11.93;7.68;;;;;;;12.13;51.51;94396.91;5124085;27;20062;-81
2023/03/25 06:07:42;;;;;;;9.20;7.00;;;;;;;12.95;48.71;94325.47;5089515;28;20432;-81
2023/03/25 06:10:09;;;;;;;10.48;7.40;;;;;;;13.29;47.79;94329.94;5106400;28;20057;-81
2023/03/25 06:12:37;;;;;;;11.18;7.95;;;;;;;13.51;48.52;94382.53;5105488;28;20039;-81
2023/03/25 06:15:05;;;;;;;14.45;8.77;;;;;;;14.13;46.82;94400.59;5106366;28;20829;-81
2023/03/25 06:17:32;;;;;;;13.18;8.82;;;;;;;14.90;44.97;94425.56;5107725;28;20063;-81
2023/03/25 06:19:59;;;;;;;10.13;6.95;;;;;;;14.33;46.12;94424.66;5087289;28;20127;-81
2023/03/25 06:22:25;;;;;;;13.13;8.25;;;;;;;13.52;45.41;94311.94;5106039;28;20074;-81
2023/03/25 06:24:51;;;;;;;10.13;8.52;;;;;;;13.57;45.57;94327.13;5107409;28;20102;-81
2023/03/25 06:27:16;;;;;;;13.10;7.07;;;;;;;14.02;46.25;94418.19;5089571;28;20405;-81
2023/03/25 06:29:42;;;;;;;12.23;8.13;;;;;;;13.92;47.17;94416.66;5109658;28;20047;-80
2023/03/25 06:32:08;;;;;;;12.63;9.50;;;;;;;14.21;46.26;94421.53;5108275;28;20085;-79
2023/03/25 06:34:34;;;;;;;15.93;10.30;;;;;;;14.33;46.49;94416.81;5108686;28;20024;-80
2023/03/25 06:37:00;;;;;;;17.25;12.50;;;;;;;14.46;45.07;94425.03;5110815;28;20040;-84
2023/03/25 06:39:32;;;;;;;17.70;12.05;;;;;;;14.48;45.90;94402.94;5076739;28;20192;-84
2023/03/25 06:41:58;;;;;;;22.75;18.90;;;;;;;14.73;45.25;94409.06;5077727;28;20039;-84
2023/03/25 06:44:24;;;;;;;19.00;11.57;;;;;;;14.48;45.32;94365.53;5109927;28;20157;-85
2023/03/25 06:46:50;;;;;;;26.67;17.42;;;;;;;15.02;45.34;94441.78;5109127;28;20082;-84
2023/03/25 06:49:16;;;;;;;19.63;12.27;;;;;;;14.97;45.41;94407.44;5111198;28;20034;-85
2023/03/25 06:51:41;;;;;;;16.85;11.50;;;;;;;15.25;44.39;94420.19;5109700;28;20118;-84
2023/03/25 06:54:07;;;;;;;17.33;11.95;;;;;;;14.83;44.55;94380.16;5102482;28;20042;-84
2023/03/25 06:56:32;;;;;;;14.55;11.50;;;;;;;14.91;44.08;94376.72;5089814;28;20180;-84
2023/03/25 06:58:58;;;;;;;14.82;11.52;;;;;;;14.67;45.00;94339.13;5093208;28;20051;-85
2023/03/25 07:01:24;;;;;;;14.85;11.48;;;;;;;14.51;44.72;94303.34;5096549;28;20061;-86
2023/03/25 07:03:50;;;;;;;17.63;10.77;;;;;;;15.65;43.45;94430.56;5113100;28;20059;-79
2023/03/25 07:06:17;;;;;;;16.90;10.00;;;;;;;15.23;43.90;94375.88;5114481;28;20074;-79
2023/03/25 07:08:43;;;;;;;18.42;13.70;;;;;;;15.43;43.70;94373.69;5110073;27;20034;-83
2023/03/25 07:11:19;;;;;;;22.05;15.48;;;;;;;15.17;43.14;94316.38;5094211;28;20036;-86
2023/03/25 07:13:45;;;;;;;20.67;16.38;;;;;;;15.45;42.73;94337.72;5093616;28;20023;-81
2023/03/25 07:16:11;;;;;;;18.42;11.35;;;;;;;15.16;42.79;94294.63;5109439;27;20020;-84
2023/03/25 07:18:37;;;;;;;17.58;10.57;;;;;;;15.83;42.63;94379.84;5075511;28;20023;-82
2023/03/25 07:21:03;;;;;;;16.15;12.02;;;;;;;15.72;41.95;94312.13;5109984;27;20028;-83
2023/03/25 07:23:29;;;;;;;25.13;13.88;;;;;;;16.02;41.63;94355.06;5107848;27;20036;-82
2023/03/25 07:25:57;;;;;;;12.60;9.13;;;;;;;16.10;40.55;94362.84;5107785;28;20520;-84
2023/03/25 07:28:24;;;;;;;13.18;8.90;;;;;;;15.80;40.98;94333.84;5075396;28;20039;-85
2023/03/25 07:30:49;;;;;;;20.52;13.38;;;;;;;16.27;41.55;94429.94;5107242;28;20024;-80
2023/03/25 07:33:15;;;;;;;27.38;18.95;;;;;;;15.92;41.44;94368.34;5090275;28;20040;-83
2023/03/25 07:35:40;;;;;;;39.85;24.88;;;;;;;15.85;41.39;94330.72;5109859;28;20030;-81
2023/03/25 07:38:06;;;;;;;19.73;13.43;;;;;;;15.89;41.26;94339.88;5110087;28;20038;-81
2023/03/25 07:40:34;;;;;;;21.15;13.57;;;;;;;15.88;40.85;94304.22;5107857;28;20160;-91
2023/03/25 07:43:00;;;;;;;15.77;11.63;;;;;;;16.08;40.70;94323.72;5072377;28;20132;-78
2023/03/25 07:45:26;;;;;;;17.70;11.75;;;;;;;16.79;39.96;94414.56;5108895;28;20504;-81
2023/03/25 07:47:52;;;;;;;14.20;9.95;;;;;;;16.40;40.21;94332.38;5108194;28;20429;-81
2023/03/25 07:50:18;;;;;;;18.60;12.50;;;;;;;16.48;40.88;94329.69;5106770;28;20085;-80
2023/03/25 07:52:43;;;;;;;14.55;9.90;;;;;;;16.42;40.64;94325.16;5105770;28;20496;-80
2023/03/25 07:55:09;;;;;;;12.20;10.02;;;;;;;16.79;40.71;94376.03;5107874;28;20031;-81
2023/03/25 07:57:34;;;;;;;12.60;9.35;;;;;;;16.74;41.00;94352.97;5108664;28;20028;-85
2023/03/25 08:00:04;;;;;;;15.23;9.68;;;;;;;16.52;41.66;94319.69;5083581;28;20024;-85
2023/03/25 08:02:30;;;;;;;10.73;8.68;;;;;;;15.89;40.81;94297.97;5072111;28;20061;-79
2023/03/25 08:04:56;;;;;;;11.82;8.35;;;;;;;16.14;41.83;94313.56;5107531;27;20056;-82
2023/03/25 08:07:22;;;;;;;11.10;8.05;;;;;;;16.72;42.13;94396.09;5105373;28;20035;-82
2023/03/25 08:09:50;;;;;;;11.63;9.23;;;;;;;16.45;41.60;94351.00;5107686;27;20084;-83
2023/03/25 08:12:15;;;;;;;12.18;8.68;;;;;;;17.13;41.22;94390.53;5089559;28;20516;-79
2023/03/25 08:14:41;;;;;;;13.45;8.55;;;;;;;16.76;41.23;94323.91;5106776;28;20023;-82
2023/03/25 08:17:07;;;;;;;11.73;8.57;;;;;;;17.20;40.61;94368.66;5108925;28;20031;-79
2023/03/25 08:19:32;;;;;;;13.85;9.10;;;;;;;17.13;40.72;94375.63;5108034;28;20111;-81
2023/03/25 08:21:58;;;;;;;10.23;8.38;;;;;;;16.93;40.63;94307.06;5071544;28;20028;-79
2023/03/25 08:24:25;;;;;;;13.65;8.35;;;;;;;17.06;40.20;94300.41;5104042;27;20028;-78
2023/03/25 08:26:52;;;;;;;10.73;7.70;;;;;;;17.25;39.82;94306.94;5107960;28;20358;-77
2023/03/25 08:29:19;;;;;;;11.60;8.80;;;;;;;17.74;39.79;94369.41;5089152;28;20463;-77
2023/03/25 08:31:45;;;;;;;11.00;8.23;;;;;;;17.77;39.31;94369.84;5109212;28;20405;-78
2023/03/25 08:34:11;;;;;;;14.15;9.00;;;;;;;17.46;40.06;94363.97;5114690;27;20027;-77
2023/03/25 08:36:38;;;;;;;12.18;7.82;;;;;;;17.29;39.76;94329.19;5109722;28;20116;-77
2023/03/25 08:39:08;;;;;;;10.60;7.43;;;;;;;17.31;38.97;94332.47;5088708;28;20054;-78
2023/03/25 08:41:34;;;;;;;9.38;7.55;;;;;;;17.46;38.81;94371.84;5111050;28;20505;-79
2023/03/25 08:43:59;;;;;;;10.32;7.93;;;;;;;17.52;38.65;94352.75;5107281;27;20047;-78
2023/03/25 08:46:25;;;;;;;10.98;7.40;;;;;;;17.33;38.49;94306.88;5108453;28;20108;-78
2023/03/25 08:48:52;;;;;;;13.60;7.90;;;;;;;17.77;37.65;94355.91;5101016;28;20485;-77
2023/03/25 08:51:17;;;;;;;11.82;7.82;;;;;;;18.01;37.48;94342.53;5109158;28;20047;-78
2023/03/25 08:53:43;;;;;;;9.32;7.47;;;;;;;17.54;38.09;94340.25;5104727;27;20035;-75
2023/03/25 08:56:09;;;;;;;12.13;7.55;;;;;;;17.81;37.86;94336.22;5104921;28;20054;-78
2023/03/25 08:58:35;;;;;;;11.20;7.72;;;;;;;17.99;38.66;94347.13;5104108;28;20574;-80
2023/03/25 09:01:01;;;;;;;13.40;7.60;;;;;;;18.17;38.74;94320.47;5111561;28;20031;-78
2023/03/25 09:03:27;;;;;;;9.15;7.13;;;;;;;18.07;37.07;94309.44;5107839;28;20104;-83
2023/03/25 09:05:52;;;;;;;11.50;7.18;;;;;;;17.64;37.62;94269.91;5087471;28;20072;-83
2023/03/25 09:08:18;;;;;;;9.60;7.60;;;;;;;17.77;38.27;94254.28;5107365;28;20098;-80
2023/03/25 09:10:43;;;;;;;9.30;7.18;;;;;;;18.11;37.76;94299.34;5108312;28;20034;-78
2023/03/25 09:13:09;;;;;;;12.07;7.40;;;;;;;17.87;37.04;94256.66;5109099;28;20035;-89
2023/03/25 09:15:35;;;;;;;10.25;7.43;;;;;;;17.91;36.96;94249.22;5088703;28;20027;-81
2023/03/25 09:18:01;;;;;;;12.73;7.13;;;;;;;18.31;37.27;94289.88;5109555;28;20038;-78
2023/03/25 09:20:26;;;;;;;11.55;7.05;;;;;;;18.60;37.12;94325.75;5122194;27;20028;-78
2023/03/25 09:22:52;;;;;;;13.15;7.30;;;;;;;17.97;36.49;94240.59;5110009;27;20042;-77
2023/03/25 09:25:18;;;;;;;9.93;6.93;;;;;;;18.58;36.25;94308.53;5111827;27;20031;-80
2023/03/25 09:27:43;;;;;;;11.02;7.45;;;;;;;18.07;36.49;94235.84;5092367;28;20410;-79
2023/03/25 09:30:09;;;;;;;9.93;6.90;;;;;;;18.09;36.50;94239.09;5110202;28;20024;-80
2023/03/25 09:32:35;;;;;;;13.60;6.90;;;;;;;17.95;37.22;94253.13;5110028;28;20031;-79
2023/03/25 09:35:00;;;;;;;29.08;16.92;;;;;;;18.18;37.37;94271.34;5109433;28;20523;-79
2023/03/25 09:37:26;;;;;;;10.68;8.07;;;;;;;17.58;37.80;94213.69;5109030;28;20019;-79
2023/03/25 09:39:51;;;;;;;11.23;7.43;;;;;;;17.75;37.85;94210.84;5121486;27;20041;-79
2023/03/25 09:42:36;;;;;;;12.52;8.13;;;;;;;18.36;37.99;94292.78;5116939;27;20412;-79
2023/03/25 09:45:16;;;;;;;12.10;8.65;;;;;;;18.05;38.02;94279.88;5110725;28;20028;-82
2023/03/25 09:47:51;;;;;;;8.63;7.50;;;;;;;18.52;38.01;94283.78;5093527;28;20063;-81
2023/03/25 09:50:16;;;;;;;13.45;9.45;;;;;;;18.02;37.75;94188.28;5078439;28;20031;-81
2023/03/25 09:53:08;;;;;;;8.15;6.50;;;;;;;18.75;37.10;94268.66;5111302;28;20084;-81
2023/03/25 09:55:37;;;;;;;10.05;7.60;;;;;;;18.72;37.45;94258.50;5079805;27;20027;-80
2023/03/25 09:58:26;;;;;;;11.77;7.38;;;;;;;18.47;37.83;94215.16;5093139;28;20039;-82
2023/03/25 10:00:59;;;;;;;13.02;7.60;;;;;;;18.75;37.77;94245.00;5059717;28;20071;-80
2023/03/25 10:03:28;;;;;;;16.08;10.63;;;;;;;18.65;37.15;94259.44;5077601;28;20023;-81
2023/03/25 10:06:18;;;;;;;10.30;6.88;;;;;;;18.47;37.01;94216.00;5109617;28;20135;-81
2023/03/25 10:09:09;;;;;;;13.23;7.80;;;;;;;18.90;36.55;94267.75;5076815;28;20023;-79
2023/03/25 10:12:03;;;;;;;8.25;6.47;;;;;;;19.11;36.58;94270.34;5100623;28;20274;-78
2023/03/25 10:14:35;;;;;;;12.90;8.27;;;;;;;19.07;36.51;94263.03;5102027;28;20160;-78
2023/03/25 10:17:08;;;;;;;11.82;7.88;;;;;;;19.23;36.29;94264.53;5111765;28;20114;-78
2023/03/25 10:19:34;;;;;;;12.70;8.63;;;;;;;19.32;36.37;94263.38;5119494;27;20031;-78
2023/03/25 10:22:16;;;;;;;15.77;10.02;;;;;;;19.31;36.94;94262.56;5131958;27;20413;-80
2023/03/25 10:24:52;;;;;;;12.52;8.20;;;;;;;19.42;36.01;94255.94;5130470;27;20031;-78
2023/03/25 10:27:37;;;;;;;14.45;8.00;;;;;;;19.43;36.17;94249.66;5106591;28;20110;-78
2023/03/25 10:30:08;;;;;;;13.70;7.55;;;;;;;19.46;35.60;94246.63;5109773;28;20104;-79
2023/03/25 10:32:54;;;;;;;14.10;7.82;;;;;;;19.48;36.01;94242.00;5113887;28;20063;-79
2023/03/25 10:35:34;;;;;;;16.92;9.60;;;;;;;19.08;35.78;94172.50;5080687;28;20562;-79
2023/03/25 10:38:23;;;;;;;23.13;11.52;;;;;;;19.45;35.81;94238.94;5106417;28;20122;-82
2023/03/25 10:41:21;;;;;;;12.20;7.72;;;;;;;19.56;35.35;94225.22;5117903;27;20470;-82
2023/03/25 10:43:47;;;;;;;12.73;7.57;;;;;;;19.55;35.15;94213.84;5112470;28;20047;-82
2023/03/25 10:46:12;;;;;;;14.05;7.63;;;;;;;19.63;35.24;94216.31;5097535;28;20024;-82
2023/03/25 10:48:38;;;;;;;10.07;7.43;;;;;;;19.42;35.12;94214.63;5115001;27;20031;-81
2023/03/25 10:51:10;;;;;;;12.90;8.15;;;;;;;19.29;35.14;94179.50;5125591;27;20036;-81
2023/03/25 10:53:36;;;;;;;12.10;6.80;;;;;;;19.61;34.43;94214.88;5113342;28;20497;-81
2023/03/25 10:56:03;;;;;;;12.20;8.38;;;;;;;19.54;34.30;94212.22;5114829;28;20057;-81
2023/03/25 10:58:30;;;;;;;11.43;7.07;;;;;;;19.68;34.66;94209.69;5115985;27;20024;-83
2023/03/25 11:00:55;;;;;;;10.05;6.32;;;;;;;19.57;33.54;94185.50;5114031;28;20043;-83
2023/03/25 11:03:32;;;;;;;10.82;6.57;;;;;;;19.80;33.58;94192.28;5115458;28;20035;-82
2023/03/25 11:05:58;;;;;;;9.48;6.72;;;;;;;20.06;33.55;94196.81;5096853;28;20193;-83
2023/03/25 11:08:24;;;;;;;10.32;5.43;;;;;;;19.76;32.54;94167.34;5113694;28;20477;-82
2023/03/25 11:10:54;;;;;;;9.48;5.45;;;;;;;19.94;32.95;94186.03;5096806;28;20115;-83
2023/03/25 11:13:26;;;;;;;8.75;5.20;;;;;;;20.01;33.02;94178.97;5113617;28;20032;-82
2023/03/25 11:15:52;;;;;;;7.63;5.30;;;;;;;20.08;32.97;94174.50;5113641;28;20459;-81
2023/03/25 11:18:29;;;;;;;6.65;5.28;;;;;;;19.95;31.93;94166.59;5096921;28;20051;-82
2023/03/25 11:21:11;;;;;;;8.77;6.03;;;;;;;20.03;31.98;94174.31;5097319;28;20020;-84
2023/03/25 11:23:41;;;;;;;11.68;6.80;;;;;;;20.08;32.64;94166.59;5096553;28;20040;-82
2023/03/25 11:26:26;;;;;;;10.95;5.40;;;;;;;20.28;32.48;94171.06;5097048;28;20046;-79
2023/03/25 11:29:12;;;;;;;9.65;5.28;;;;;;;20.28;32.41;94152.59;5096494;28;20135;-80
2023/03/25 11:31:38;;;;;;;11.20;6.40;;;;;;;20.30;32.42;94148.75;5094207;28;20035;-84
2023/03/25 11:34:10;;;;;;;7.97;5.38;;;;;;;20.55;32.14;94150.81;5095627;28;20122;-83
2023/03/25 11:37:00;;;;;;;7.65;4.78;;;;;;;20.61;31.82;94154.44;5112472;28;20115;-78
2023/03/25 11:39:38;;;;;;;6.80;4.80;;;;;;;20.06;31.98;94063.19;5093509;28;20085;-83